Time;durP1;ratioP1;P1;durP2;ratioP2;P2;SDS_P1;SDS_P2;PMS_P1;PMS_P2;Temp;Humidity;BMP_temperature;BMP_pressure;BME280_temperature;BME280_humidity;BME280_pressure;Samples;Min_cycle;Max_cycle;Signal;HPM_P1;HPM_P2
2023/05/07 00:00:45;;;;;;;7.50;4.80;;;12.40;99.90;;;;;;5089931;28;20414;-71
2023/05/07 00:03:11;;;;;;;5.67;5.17;;;12.30;99.90;;;;;;5088251;28;20621;-72
2023/05/07 00:05:37;;;;;;;9.57;4.97;;;12.40;99.90;;;;;;5095676;28;20203;-72
2023/05/07 00:08:03;;;;;;;7.13;5.17;;;12.40;99.90;;;;;;5090441;28;20479;-72
2023/05/07 00:10:28;;;;;;;8.80;4.80;;;12.30;99.90;;;;;;5089841;28;20907;-71
2023/05/07 00:12:54;;;;;;;5.53;5.00;;;12.30;99.90;;;;;;5090054;28;20203;-71
2023/05/07 00:15:20;;;;;;;4.80;4.40;;;12.30;99.90;;;;;;5090328;28;20290;-73
2023/05/07 00:17:45;;;;;;;5.10;4.53;;;12.30;99.90;;;;;;5088587;28;20180;-72
2023/05/07 00:20:11;;;;;;;6.23;5.07;;;12.30;99.90;;;;;;5088129;28;20192;-73
2023/05/07 00:22:37;;;;;;;10.00;5.20;;;12.30;99.90;;;;;;5089691;28;20203;-73
2023/05/07 00:25:03;;;;;;;7.83;5.10;;;12.20;99.90;;;;;;5088938;28;20426;-70
2023/05/07 00:27:29;;;;;;;8.73;4.73;;;12.20;99.90;;;;;;5090531;28;20263;-73
2023/05/07 00:29:54;;;;;;;4.80;4.30;;;12.20;99.90;;;;;;5090109;28;20505;-72
2023/05/07 00:32:20;;;;;;;4.77;4.27;;;12.20;99.90;;;;;;5089024;28;20214;-73
2023/05/07 00:34:45;;;;;;;7.97;4.43;;;12.10;99.90;;;;;;5090042;28;20211;-72
2023/05/07 00:37:11;;;;;;;4.70;4.30;;;12.20;99.90;;;;;;5101273;28;20187;-72
2023/05/07 00:39:37;;;;;;;5.20;4.70;;;12.20;99.90;;;;;;5090102;28;20245;-72
2023/05/07 00:42:03;;;;;;;10.10;4.83;;;12.20;99.90;;;;;;5088707;28;21264;-72
2023/05/07 00:44:29;;;;;;;6.70;5.23;;;12.20;99.90;;;;;;5090105;28;20210;-73
2023/05/07 00:46:57;;;;;;;5.43;4.33;;;12.10;99.90;;;;;;5090197;28;20176;-72
2023/05/07 00:49:37;;;;;;;6.10;4.93;;;12.10;99.90;;;;;;5095086;28;20437;-73
2023/05/07 00:52:03;;;;;;;6.20;4.40;;;12.10;99.90;;;;;;5088558;28;20437;-72
2023/05/07 00:54:29;;;;;;;6.03;3.80;;;12.00;99.90;;;;;;5089843;28;20473;-73
2023/05/07 00:56:55;;;;;;;5.30;4.60;;;12.00;99.90;;;;;;5089919;28;20191;-72
2023/05/07 00:59:21;;;;;;;6.77;5.00;;;12.00;99.90;;;;;;5089749;28;20175;-72
2023/05/07 02:32:24;;;;;;;4.90;4.50;;;11.60;99.90;;;;;;5125784;22;20814;-74
2023/05/07 02:34:52;;;;;;;3.90;3.70;;;11.60;99.90;;;;;;4882196;28;20642;-72
2023/05/07 02:37:20;;;;;;;5.97;4.30;;;11.50;99.90;;;;;;4869381;28;20875;-75
2023/05/07 02:39:46;;;;;;;5.20;4.07;;;11.50;99.90;;;;;;4880937;28;21128;-71
2023/05/07 02:42:12;;;;;;;4.67;4.27;;;11.50;99.90;;;;;;4890843;28;20744;-74
2023/05/07 02:44:38;;;;;;;5.20;4.70;;;11.50;99.90;;;;;;4903347;28;20982;-74
2023/05/07 02:47:04;;;;;;;6.50;5.00;;;11.50;99.90;;;;;;4894564;28;20613;-73
2023/05/07 02:49:30;;;;;;;5.83;5.23;;;11.40;99.90;;;;;;4894781;28;20352;-73
2023/05/07 02:51:56;;;;;;;5.90;4.90;;;11.40;99.90;;;;;;4896391;28;21299;-73
2023/05/07 02:54:22;;;;;;;10.90;4.57;;;11.40;99.90;;;;;;4894122;28;20556;-73
2023/05/07 02:56:47;;;;;;;4.57;4.13;;;11.30;99.90;;;;;;4897841;28;20655;-72
2023/05/07 02:59:13;;;;;;;5.00;4.40;;;11.30;99.90;;;;;;4889294;28;20698;-72
2023/05/07 03:01:39;;;;;;;5.73;4.97;;;11.20;99.90;;;;;;4884694;28;20510;-72
2023/05/07 03:04:05;;;;;;;5.60;5.10;;;11.20;99.90;;;;;;4896948;28;20326;-72
2023/05/07 03:06:31;;;;;;;7.50;4.70;;;11.20;99.90;;;;;;4876784;28;20527;-73
2023/05/07 03:08:56;;;;;;;11.30;5.83;;;11.10;99.90;;;;;;4918107;28;20187;-73
2023/05/07 03:11:22;;;;;;;10.30;4.40;;;11.10;99.90;;;;;;5029959;28;20230;-71
2023/05/07 03:13:49;;;;;;;5.30;4.43;;;11.10;99.90;;;;;;5025426;28;20217;-74
2023/05/07 03:16:15;;;;;;;5.63;5.13;;;11.10;99.90;;;;;;5008446;28;20613;-73
2023/05/07 03:18:41;;;;;;;4.97;4.57;;;11.00;99.90;;;;;;5011914;28;20613;-72
2023/05/07 03:21:06;;;;;;;6.30;4.77;;;11.00;99.90;;;;;;5027761;28;20444;-72
2023/05/07 03:23:32;;;;;;;8.17;4.80;;;10.90;99.90;;;;;;5018964;28;20191;-73
2023/05/07 03:25:57;;;;;;;6.77;5.53;;;10.90;99.90;;;;;;5011900;28;20189;-73
2023/05/07 03:28:23;;;;;;;4.73;4.30;;;10.90;99.90;;;;;;5030640;28;20186;-72
2023/05/07 03:30:48;;;;;;;4.80;4.10;;;10.90;99.90;;;;;;5030092;28;20209;-71
2023/05/07 03:33:14;;;;;;;4.90;4.57;;;10.80;99.90;;;;;;5031013;28;20185;-74
2023/05/07 03:35:39;;;;;;;6.20;4.97;;;10.80;99.90;;;;;;5026228;28;20195;-73
2023/05/07 03:38:05;;;;;;;5.50;4.37;;;10.80;99.90;;;;;;5019297;28;20178;-73
2023/05/07 03:40:31;;;;;;;5.27;4.70;;;10.70;99.90;;;;;;5030490;28;20700;-74
2023/05/07 03:42:56;;;;;;;5.67;4.77;;;10.70;99.90;;;;;;5030524;28;20202;-72
2023/05/07 03:45:22;;;;;;;5.27;4.77;;;10.70;99.90;;;;;;5030690;28;20317;-71
2023/05/07 03:47:47;;;;;;;6.40;4.50;;;10.70;99.90;;;;;;5031086;28;20529;-74
2023/05/07 03:50:12;;;;;;;5.47;4.90;;;10.60;99.90;;;;;;5029116;28;20681;-73
2023/05/07 03:52:38;;;;;;;5.20;4.70;;;10.60;99.90;;;;;;5010635;28;20206;-73
2023/05/07 03:55:04;;;;;;;5.50;4.97;;;10.60;99.90;;;;;;5011006;28;20308;-72
2023/05/07 03:57:29;;;;;;;5.00;4.60;;;10.60;99.90;;;;;;5030747;28;20182;-73
2023/05/07 03:59:55;;;;;;;5.27;4.77;;;10.60;99.90;;;;;;5030452;28;20178;-73
2023/05/07 04:02:20;;;;;;;7.57;5.90;;;10.60;99.90;;;;;;5029686;28;20256;-73
2023/05/07 04:04:48;;;;;;;4.77;4.37;;;10.60;99.90;;;;;;5012848;28;20182;-73
2023/05/07 04:07:14;;;;;;;8.20;5.30;;;10.60;99.90;;;;;;5030688;28;20693;-74
2023/05/07 04:09:40;;;;;;;4.80;4.23;;;10.60;99.90;;;;;;5025011;28;20901;-73
2023/05/07 04:12:06;;;;;;;9.10;5.07;;;10.50;99.90;;;;;;5010037;28;20470;-72
2023/05/07 04:14:32;;;;;;;8.60;5.73;;;10.60;99.90;;;;;;5010677;28;20252;-73
2023/05/07 04:16:58;;;;;;;8.47;4.87;;;10.50;99.90;;;;;;5011003;28;20171;-73
2023/05/07 04:19:24;;;;;;;10.70;4.40;;;10.60;99.90;;;;;;5008960;28;20426;-73
2023/05/07 04:21:50;;;;;;;5.00;4.50;;;10.60;99.90;;;;;;5009795;28;20858;-74
2023/05/07 04:24:15;;;;;;;5.00;4.60;;;10.70;99.90;;;;;;5010495;28;20270;-74
2023/05/07 04:26:41;;;;;;;6.17;4.70;;;10.70;99.90;;;;;;5024073;28;20178;-73
2023/05/07 04:29:06;;;;;;;4.90;4.50;;;10.70;99.90;;;;;;5022088;28;20233;-73
2023/05/07 04:31:32;;;;;;;4.70;4.30;;;10.80;99.90;;;;;;5010994;28;20283;-74
2023/05/07 04:33:57;;;;;;;4.53;4.10;;;10.80;99.90;;;;;;5030171;28;20694;-74
2023/05/07 04:36:27;;;;;;;8.07;5.10;;;10.80;99.90;;;;;;5029819;28;20643;-72
2023/05/07 04:38:53;;;;;;;5.50;5.00;;;10.80;99.90;;;;;;5009167;28;20182;-74
2023/05/07 04:41:19;;;;;;;5.37;4.47;;;10.90;99.90;;;;;;5008946;28;20438;-73
2023/05/07 04:43:45;;;;;;;5.40;4.90;;;11.00;99.90;;;;;;5010215;28;20414;-74
2023/05/07 04:46:10;;;;;;;4.60;4.20;;;11.00;99.90;;;;;;5010580;28;20417;-74
2023/05/07 04:48:36;;;;;;;4.63;4.30;;;11.10;99.90;;;;;;5010063;28;20437;-74
2023/05/07 04:51:02;;;;;;;4.70;4.30;;;11.20;99.90;;;;;;5009203;28;20211;-71
2023/05/07 04:53:27;;;;;;;4.80;4.40;;;11.20;99.90;;;;;;5009842;28;20555;-73
2023/05/07 04:55:57;;;;;;;5.47;4.13;;;11.30;99.90;;;;;;5024892;28;20181;-75
2023/05/07 04:58:23;;;;;;;5.50;4.70;;;11.30;99.90;;;;;;5029728;28;20197;-71
2023/05/07 05:00:48;;;;;;;6.70;5.13;;;11.30;99.90;;;;;;5028675;28;20432;-70
2023/05/07 05:03:14;;;;;;;5.47;5.00;;;11.30;99.90;;;;;;5029794;28;20456;-74
2023/05/07 05:05:39;;;;;;;6.37;5.10;;;11.30;99.90;;;;;;5030218;28;20717;-74
2023/05/07 05:08:05;;;;;;;5.70;4.50;;;11.30;99.90;;;;;;5029570;28;20887;-73
2023/05/07 05:10:30;;;;;;;5.03;4.63;;;11.30;99.90;;;;;;5009770;28;20193;-74
2023/05/07 05:12:56;;;;;;;5.67;5.17;;;11.40;99.90;;;;;;5009406;28;20178;-73
2023/05/07 05:15:21;;;;;;;8.13;4.70;;;11.40;99.90;;;;;;5009818;28;20571;-71
2023/05/07 05:17:47;;;;;;;6.53;5.07;;;11.60;99.90;;;;;;5010187;28;20185;-73
2023/05/07 05:20:12;;;;;;;4.73;4.33;;;11.70;99.90;;;;;;5009734;28;20213;-73
2023/05/07 05:22:38;;;;;;;5.30;4.83;;;11.80;99.90;;;;;;5009070;28;20206;-73
2023/05/07 05:25:04;;;;;;;6.10;5.50;;;11.90;99.90;;;;;;5009967;28;20183;-73
2023/05/07 05:27:30;;;;;;;8.83;6.03;;;11.90;99.90;;;;;;5020942;28;20502;-74
2023/05/07 05:29:55;;;;;;;6.13;4.60;;;12.10;99.90;;;;;;5023001;28;20574;-74
2023/05/07 05:32:21;;;;;;;7.53;4.30;;;12.20;99.90;;;;;;5008735;28;20951;-74
2023/05/07 05:34:47;;;;;;;5.03;4.50;;;13.20;99.90;;;;;;5010198;28;20238;-74
2023/05/07 05:37:12;;;;;;;4.20;3.80;;;14.60;99.90;;;;;;5009953;28;20183;-74
2023/05/07 05:39:38;;;;;;;4.17;3.87;;;15.50;99.90;;;;;;5009406;28;20927;-74
2023/05/07 05:42:03;;;;;;;8.53;3.90;;;16.20;99.90;;;;;;5009069;28;20209;-73
2023/05/07 05:44:29;;;;;;;4.77;3.80;;;16.40;99.90;;;;;;5009691;28;21126;-74
2023/05/07 05:46:55;;;;;;;5.90;5.00;;;16.40;99.90;;;;;;5023198;28;20670;-74
2023/05/07 05:49:21;;;;;;;4.47;4.17;;;17.20;99.90;;;;;;5011569;28;20694;-74
2023/05/07 05:51:47;;;;;;;5.10;4.17;;;17.90;99.90;;;;;;5008698;28;20448;-74
2023/05/07 05:54:12;;;;;;;4.33;3.93;;;17.70;99.90;;;;;;5009590;28;20457;-73
2023/05/07 05:56:38;;;;;;;5.43;4.50;;;17.20;99.90;;;;;;5009775;28;20554;-73
2023/05/07 05:59:04;;;;;;;5.83;5.20;;;16.60;99.90;;;;;;5009713;28;20233;-73
2023/05/07 06:01:29;;;;;;;7.73;5.20;;;16.00;99.90;;;;;;5028294;28;20208;-73
2023/05/07 06:03:55;;;;;;;4.40;4.00;;;15.90;99.90;;;;;;5018856;28;20686;-74
2023/05/07 06:06:21;;;;;;;6.30;4.80;;;16.10;99.90;;;;;;5030723;28;20182;-74
2023/05/07 06:08:46;;;;;;;5.90;5.30;;;16.10;99.90;;;;;;5032877;28;20419;-73
2023/05/07 06:11:12;;;;;;;5.53;4.97;;;16.20;99.90;;;;;;5031553;28;20198;-72
2023/05/07 06:13:37;;;;;;;6.17;5.40;;;16.60;99.90;;;;;;5032583;28;20263;-73
2023/05/07 06:16:03;;;;;;;8.20;5.40;;;16.80;99.90;;;;;;5032784;28;20182;-71
2023/05/07 06:18:29;;;;;;;6.87;6.00;;;16.90;99.90;;;;;;5022264;28;20226;-73
2023/05/07 06:20:54;;;;;;;6.90;5.63;;;16.80;99.90;;;;;;5011624;28;20203;-72
2023/05/07 06:23:20;;;;;;;6.70;6.00;;;16.80;99.90;;;;;;5012758;28;20421;-73
2023/05/07 06:25:52;;;;;;;5.97;5.40;;;16.70;99.90;;;;;;5012771;28;20174;-72
2023/05/07 06:28:18;;;;;;;8.03;5.37;;;16.80;99.90;;;;;;5013562;28;20685;-73
2023/05/07 06:30:43;;;;;;;6.70;6.10;;;16.90;99.90;;;;;;5031707;28;20439;-72
2023/05/07 06:33:09;;;;;;;5.60;5.10;;;17.20;99.90;;;;;;5024331;28;20181;-73
2023/05/07 06:35:34;;;;;;;6.77;5.53;;;17.30;99.90;;;;;;5023544;28;20212;-73
2023/05/07 06:38:00;;;;;;;6.50;5.40;;;17.50;99.90;;;;;;5032537;28;20731;-72
2023/05/07 06:40:26;;;;;;;5.87;5.33;;;17.80;99.90;;;;;;5031359;28;20213;-73
2023/05/07 06:42:52;;;;;;;6.17;5.60;;;18.00;99.90;;;;;;5018065;28;20233;-73
2023/05/07 06:45:17;;;;;;;6.33;5.10;;;18.50;99.90;;;;;;5021135;28;20555;-73
2023/05/07 06:47:43;;;;;;;5.80;5.20;;;18.90;99.90;;;;;;5010928;28;20709;-71
2023/05/07 06:50:09;;;;;;;5.33;4.83;;;19.20;99.90;;;;;;5020302;28;20233;-73
2023/05/07 06:52:35;;;;;;;5.03;4.57;;;19.80;99.90;;;;;;5011420;28;20202;-72
2023/05/07 06:55:01;;;;;;;7.10;4.77;;;20.20;99.90;;;;;;5018776;28;20531;-73
2023/05/07 06:57:26;;;;;;;6.70;4.53;;;20.50;99.90;;;;;;5013829;28;20175;-73
2023/05/07 06:59:52;;;;;;;5.50;4.20;;;20.80;99.90;;;;;;5017122;28;20646;-76
2023/05/07 07:02:17;;;;;;;4.70;4.40;;;20.80;99.90;;;;;;5030912;28;20198;-75
2023/05/07 07:04:44;;;;;;;5.00;4.20;;;20.90;99.90;;;;;;5019039;28;20179;-70
2023/05/07 07:07:10;;;;;;;4.83;4.33;;;21.10;99.90;;;;;;5012462;28;20209;-72
2023/05/07 07:09:35;;;;;;;6.40;4.73;;;21.40;99.90;;;;;;5011597;28;20455;-71
2023/05/07 07:12:01;;;;;;;5.17;4.67;;;21.70;99.90;;;;;;5010515;28;20415;-73
2023/05/07 07:14:26;;;;;;;4.50;4.20;;;21.90;99.90;;;;;;5011548;28;20256;-72
2023/05/07 07:16:52;;;;;;;7.30;4.03;;;21.90;99.90;;;;;;5011975;28;20190;-72
2023/05/07 07:19:17;;;;;;;10.43;4.60;;;22.10;99.90;;;;;;5011758;28;20187;-72
2023/05/07 07:21:44;;;;;;;5.07;4.30;;;22.30;99.90;;;;;;5030597;28;20675;-69
2023/05/07 07:24:10;;;;;;;4.10;3.50;;;22.50;99.90;;;;;;5031497;28;20261;-72
2023/05/07 07:26:35;;;;;;;4.40;3.67;;;23.00;99.90;;;;;;5012310;28;20586;-72
2023/05/07 07:29:01;;;;;;;4.43;4.00;;;23.20;99.90;;;;;;5011769;28;20186;-74
2023/05/07 07:31:26;;;;;;;3.57;3.37;;;23.40;99.90;;;;;;5019913;28;20229;-72
2023/05/07 07:33:52;;;;;;;4.57;3.80;;;23.50;99.90;;;;;;5031577;28;20308;-72
2023/05/07 07:36:17;;;;;;;4.10;3.70;;;23.60;99.90;;;;;;5031572;28;20635;-71
2023/05/07 07:38:43;;;;;;;6.27;3.70;;;23.40;99.90;;;;;;5031143;28;20929;-72
2023/05/07 07:41:09;;;;;;;3.63;3.33;;;23.50;99.90;;;;;;5030143;28;20674;-72
2023/05/07 07:43:35;;;;;;;3.57;3.03;;;23.70;99.90;;;;;;5031241;28;20189;-72
2023/05/07 07:46:01;;;;;;;6.23;3.50;;;24.00;99.90;;;;;;5031349;28;20420;-72
2023/05/07 07:48:26;;;;;;;6.10;3.93;;;24.30;99.90;;;;;;5013396;28;20435;-73
2023/05/07 07:50:52;;;;;;;4.23;3.73;;;24.30;99.90;;;;;;5029393;28;20205;-75
2023/05/07 07:53:18;;;;;;;3.50;3.17;;;24.00;99.90;;;;;;5031140;28;20181;-73
2023/05/07 07:55:43;;;;;;;4.20;3.80;;;23.30;99.90;;;;;;5030934;28;20308;-72
2023/05/07 07:58:09;;;;;;;4.93;4.20;;;23.20;99.90;;;;;;5024264;28;20420;-72
2023/05/07 08:00:35;;;;;;;3.97;3.63;;;23.10;99.90;;;;;;5029714;28;20177;-72
2023/05/07 08:03:00;;;;;;;3.70;3.40;;;23.10;99.90;;;;;;5030360;28;20202;-72
2023/05/07 08:05:26;;;;;;;6.73;3.90;;;23.30;99.90;;;;;;5030610;28;20181;-74
2023/05/07 08:07:53;;;;;;;5.17;4.50;;;23.00;99.90;;;;;;5026396;28;20232;-72
2023/05/07 08:10:22;;;;;;;12.00;4.47;;;22.90;99.90;;;;;;5010862;28;20210;-76
2023/05/07 08:12:51;;;;;;;4.67;4.27;;;23.00;99.90;;;;;;5022494;28;20453;-72
2023/05/07 08:15:17;;;;;;;4.07;3.73;;;23.10;99.90;;;;;;5030695;28;20464;-75
2023/05/07 08:17:43;;;;;;;5.33;3.90;;;23.10;99.90;;;;;;5030518;28;20409;-70
2023/05/07 08:20:09;;;;;;;5.63;4.30;;;23.40;99.90;;;;;;5030388;28;20420;-72
2023/05/07 08:22:35;;;;;;;4.60;4.00;;;23.30;99.90;;;;;;5029650;28;20440;-72
2023/05/07 08:25:01;;;;;;;5.50;4.50;;;23.50;99.90;;;;;;5030101;28;20431;-74
2023/05/07 08:27:27;;;;;;;5.30;4.60;;;23.90;99.90;;;;;;5030432;28;20420;-75
2023/05/07 08:29:53;;;;;;;6.33;3.60;;;24.00;99.90;;;;;;5029946;28;20248;-72
2023/05/07 08:32:19;;;;;;;4.20;3.40;;;24.10;99.90;;;;;;5021890;28;20226;-72
2023/05/07 08:34:44;;;;;;;4.37;3.97;;;24.10;99.90;;;;;;5030270;28;20487;-72
2023/05/07 08:37:10;;;;;;;4.27;3.53;;;23.80;99.90;;;;;;5030503;28;20228;-76
2023/05/07 08:39:35;;;;;;;5.07;3.83;;;23.80;99.90;;;;;;5029754;28;20192;-72
2023/05/07 08:42:03;;;;;;;4.60;4.13;;;23.70;99.90;;;;;;5029670;28;20261;-72
2023/05/07 08:44:34;;;;;;;5.50;3.47;;;23.70;99.90;;;;;;5029879;28;20186;-72
2023/05/07 08:47:02;;;;;;;5.00;3.47;;;24.30;99.90;;;;;;5030449;28;20840;-72
2023/05/07 08:49:28;;;;;;;3.37;2.60;;;25.10;99.90;;;;;;5029343;28;20432;-73
2023/05/07 08:51:55;;;;;;;3.60;2.77;;;26.10;99.90;;;;;;5011730;28;20866;-72
2023/05/07 08:54:21;;;;;;;3.40;3.20;;;26.60;99.90;;;;;;5029904;28;20464;-75
2023/05/07 08:56:47;;;;;;;3.53;2.97;;;27.10;99.90;;;;;;5030236;28;20860;-73
2023/05/07 08:59:14;;;;;;;3.83;3.07;;;27.30;99.90;;;;;;5029593;28;20182;-73
2023/05/07 09:01:39;;;;;;;3.90;3.20;;;27.60;99.90;;;;;;5029659;28;20205;-76
2023/05/07 09:04:06;;;;;;;2.50;2.33;;;28.10;99.90;;;;;;5024644;28;20484;-73
2023/05/07 09:06:32;;;;;;;5.40;2.67;;;28.40;99.90;;;;;;5028119;28;20246;-74
2023/05/07 09:09:00;;;;;;;2.27;2.10;;;28.30;99.90;;;;;;5016798;28;20508;-73
2023/05/07 09:11:26;;;;;;;6.93;2.83;;;28.80;99.90;;;;;;5008711;28;20980;-73
2023/05/07 09:13:55;;;;;;;6.07;3.00;;;28.70;99.90;;;;;;5009468;28;20469;-76
2023/05/07 09:16:22;;;;;;;2.77;2.47;;;28.70;99.90;;;;;;5010869;28;20183;-78
2023/05/07 09:18:51;;;;;;;2.40;2.07;;;29.10;99.90;;;;;;5009362;28;20993;-74
2023/05/07 09:21:18;;;;;;;3.40;2.03;;;28.70;99.90;;;;;;5029361;28;20446;-74
2023/05/07 09:23:44;;;;;;;2.70;2.50;;;29.10;99.90;;;;;;5037447;28;20433;-74
2023/05/07 09:26:11;;;;;;;2.47;2.23;;;28.90;99.90;;;;;;5025134;28;20428;-74
2023/05/07 09:28:43;;;;;;;2.03;1.90;;;28.90;99.90;;;;;;5019863;28;20675;-76
2023/05/07 09:31:11;;;;;;;2.80;2.60;;;29.10;99.90;;;;;;5022522;28;20467;-74
2023/05/07 09:33:37;;;;;;;2.90;2.70;;;28.70;99.90;;;;;;5027259;28;20420;-73
2023/05/07 09:36:04;;;;;;;2.20;2.10;;;28.50;99.90;;;;;;5022745;28;20434;-72
2023/05/07 09:38:31;;;;;;;1.70;1.70;;;28.70;99.90;;;;;;5048500;28;20412;-74
2023/05/07 09:41:08;;;;;;;2.40;2.10;;;28.80;99.90;;;;;;5039498;28;20431;-73
2023/05/07 09:43:35;;;;;;;2.87;2.60;;;28.90;99.90;;;;;;5007529;28;20764;-73
2023/05/07 09:46:11;;;;;;;4.70;1.93;;;28.80;99.90;;;;;;5014470;28;20579;-72
2023/05/07 09:48:41;;;;;;;3.67;2.60;;;29.00;99.90;;;;;;5027250;28;20432;-73
2023/05/07 09:51:28;;;;;;;2.93;2.27;;;29.10;99.90;;;;;;5035262;28;20519;-74
2023/05/07 09:53:54;;;;;;;4.10;2.20;;;29.60;99.90;;;;;;5027623;28;20460;-73
2023/05/07 09:56:21;;;;;;;4.20;3.10;;;29.80;99.90;;;;;;5033243;28;20421;-72
2023/05/07 09:58:46;;;;;;;3.73;1.97;;;30.10;99.90;;;;;;5033075;28;20419;-74
2023/05/07 10:01:12;;;;;;;4.27;2.10;;;30.00;99.90;;;;;;5031994;28;20894;-74
2023/05/07 10:03:41;;;;;;;5.00;2.00;;;30.30;99.90;;;;;;5030667;28;20178;-74
2023/05/07 10:06:09;;;;;;;2.67;1.67;;;30.40;99.90;;;;;;5013379;28;20409;-71
2023/05/07 10:08:35;;;;;;;2.37;2.20;;;30.20;99.90;;;;;;5013031;28;20487;-70
2023/05/07 10:11:03;;;;;;;7.60;2.10;;;29.80;99.90;;;;;;5011985;28;21107;-74
2023/05/07 10:13:29;;;;;;;2.27;2.10;;;29.20;99.90;;;;;;5013137;28;20418;-71
2023/05/07 10:15:55;;;;;;;2.30;1.60;;;28.90;99.90;;;;;;5032936;28;20482;-70
2023/05/07 10:18:23;;;;;;;1.80;1.70;;;29.00;99.90;;;;;;5032942;28;20182;-77
2023/05/07 10:20:51;;;;;;;5.90;2.03;;;28.90;99.90;;;;;;5024706;28;20558;-70
2023/05/07 10:23:22;;;;;;;3.30;2.13;;;29.20;99.90;;;;;;5032617;28;20783;-73
2023/05/07 10:25:48;;;;;;;9.13;2.10;;;28.70;99.90;;;;;;5032121;28;20516;-73
2023/05/07 10:28:14;;;;;;;4.30;1.73;;;28.90;99.90;;;;;;5032726;28;20417;-72
2023/05/07 10:31:01;;;;;;;3.60;1.73;;;28.90;99.90;;;;;;5031478;28;20476;-71
2023/05/07 10:33:28;;;;;;;2.50;1.70;;;28.50;99.90;;;;;;5032248;28;20424;-72
2023/05/07 10:35:59;;;;;;;2.13;2.03;;;28.60;99.90;;;;;;5033624;28;20422;-72
2023/05/07 10:38:25;;;;;;;1.93;1.83;;;28.60;99.90;;;;;;5044195;28;20409;-71
2023/05/07 10:40:51;;;;;;;2.37;1.73;;;28.80;99.90;;;;;;5030797;28;20435;-72
2023/05/07 10:43:16;;;;;;;2.10;2.00;;;28.40;99.90;;;;;;5032630;28;20189;-71
2023/05/07 10:45:42;;;;;;;3.83;2.03;;;28.10;99.90;;;;;;5032525;28;20230;-70
2023/05/07 10:48:13;;;;;;;2.37;2.20;;;27.50;99.90;;;;;;5038452;28;20194;-74
2023/05/07 10:50:40;;;;;;;2.30;2.10;;;27.10;99.90;;;;;;5031814;28;20186;-73
2023/05/07 10:53:21;;;;;;;2.30;2.00;;;26.70;99.90;;;;;;5023357;28;20559;-73
2023/05/07 10:55:48;;;;;;;3.20;2.63;;;26.70;99.90;;;;;;5031982;28;20492;-72
2023/05/07 10:58:25;;;;;;;1.90;1.80;;;26.50;99.90;;;;;;5032369;28;20555;-74
2023/05/07 11:00:59;;;;;;;2.60;2.37;;;26.90;99.90;;;;;;5030808;28;20522;-71
2023/05/07 11:03:26;;;;;;;2.40;2.20;;;26.70;99.90;;;;;;5031820;28;20413;-73
2023/05/07 11:06:10;;;;;;;3.20;1.90;;;26.70;99.90;;;;;;5032105;28;20417;-73
2023/05/07 11:08:55;;;;;;;4.27;2.30;;;26.50;99.90;;;;;;5031896;28;20424;-72
2023/05/07 11:11:48;;;;;;;2.63;2.43;;;26.50;99.90;;;;;;5031168;28;20849;-73
2023/05/07 11:14:34;;;;;;;2.13;2.00;;;26.50;99.90;;;;;;5032001;28;20510;-72
2023/05/07 11:17:03;;;;;;;2.47;2.10;;;26.50;99.90;;;;;;5031778;28;20486;-72
2023/05/07 11:19:54;;;;;;;3.90;1.93;;;26.20;99.90;;;;;;5031449;28;20459;-72
2023/05/07 11:22:36;;;;;;;3.53;2.10;;;26.10;99.90;;;;;;5031075;28;20455;-73
2023/05/07 11:25:06;;;;;;;2.70;1.93;;;26.10;99.90;;;;;;5031624;28;20887;-72
2023/05/07 11:27:32;;;;;;;3.73;2.80;;;26.00;99.90;;;;;;5022943;28;20424;-72
2023/05/07 11:29:58;;;;;;;2.40;2.30;;;25.90;99.90;;;;;;5011650;28;20422;-72
2023/05/07 11:32:24;;;;;;;7.63;2.20;;;25.70;99.90;;;;;;5010658;28;20461;-71
2023/05/07 11:34:54;;;;;;;2.37;2.13;;;25.60;99.90;;;;;;5030819;28;20865;-75
2023/05/07 11:37:21;;;;;;;2.90;2.70;;;25.30;99.90;;;;;;5027665;28;20452;-72
2023/05/07 11:39:47;;;;;;;2.30;2.20;;;25.20;99.90;;;;;;5010877;28;20417;-74
2023/05/07 11:42:32;;;;;;;2.50;2.30;;;25.30;99.90;;;;;;5011248;28;20433;-72
2023/05/07 11:44:58;;;;;;;2.10;1.90;;;25.10;99.90;;;;;;5023325;28;20265;-72
2023/05/07 11:47:25;;;;;;;2.50;2.40;;;24.90;99.90;;;;;;5030201;28;20499;-72
2023/05/07 11:49:52;;;;;;;3.00;2.37;;;24.80;99.90;;;;;;5027915;28;20420;-73
2023/05/07 11:52:20;;;;;;;3.23;2.20;;;24.50;99.90;;;;;;5032699;28;20967;-73
2023/05/07 11:54:54;;;;;;;1.90;1.80;;;24.30;99.90;;;;;;5047469;28;20455;-73
2023/05/07 11:57:20;;;;;;;3.90;2.13;;;24.30;99.90;;;;;;5029241;28;20452;-73
2023/05/07 11:59:47;;;;;;;3.37;2.30;;;24.20;99.90;;;;;;5044240;28;20436;-74
2023/05/07 12:02:15;;;;;;;2.30;1.83;;;24.00;99.90;;;;;;5013074;28;20453;-71
2023/05/07 12:04:40;;;;;;;2.67;2.10;;;24.00;99.90;;;;;;5025055;28;20953;-71
2023/05/07 12:07:14;;;;;;;2.10;1.73;;;23.90;99.90;;;;;;5029655;28;20511;-74
2023/05/07 12:09:43;;;;;;;2.87;2.57;;;23.80;99.90;;;;;;5036575;28;20556;-74
2023/05/07 12:12:09;;;;;;;3.00;2.10;;;23.70;99.90;;;;;;5026403;28;21090;-73
2023/05/07 12:14:39;;;;;;;3.23;2.33;;;23.60;99.90;;;;;;5021420;28;20468;-74
2023/05/07 12:17:05;;;;;;;2.77;2.57;;;23.40;99.90;;;;;;5013877;28;20248;-73
2023/05/07 12:19:31;;;;;;;2.60;2.40;;;23.20;99.90;;;;;;5015120;28;20498;-73
2023/05/07 12:21:57;;;;;;;3.57;2.40;;;22.80;99.90;;;;;;5012852;28;20477;-74
2023/05/07 12:24:22;;;;;;;3.00;2.70;;;22.60;99.90;;;;;;5019924;28;20556;-71
2023/05/07 12:26:49;;;;;;;10.33;2.67;;;22.30;99.90;;;;;;5030575;28;20413;-73
2023/05/07 12:29:14;;;;;;;4.10;2.90;;;22.10;99.90;;;;;;5015606;28;20216;-74
2023/05/07 12:31:43;;;;;;;2.10;2.00;;;21.80;99.90;;;;;;5001857;28;20500;-71
2023/05/07 12:34:11;;;;;;;2.83;2.63;;;21.40;99.90;;;;;;5034854;28;20284;-74
2023/05/07 12:36:38;;;;;;;3.87;2.40;;;21.00;99.90;;;;;;5032702;28;20416;-74
2023/05/07 12:39:05;;;;;;;3.30;2.30;;;20.60;99.90;;;;;;5029734;28;20440;-75
2023/05/07 12:41:51;;;;;;;2.17;2.00;;;20.30;99.90;;;;;;5021290;28;20444;-74
2023/05/07 12:44:17;;;;;;;4.23;2.50;;;20.00;99.90;;;;;;5010525;28;20417;-74
2023/05/07 12:46:42;;;;;;;2.30;2.20;;;19.70;99.90;;;;;;5012338;28;20417;-74
2023/05/07 12:49:09;;;;;;;2.30;1.90;;;19.50;99.90;;;;;;5046920;28;20230;-72
2023/05/07 12:51:35;;;;;;;3.70;2.60;;;19.30;99.90;;;;;;5026389;28;20476;-71
2023/05/07 12:54:00;;;;;;;2.83;2.07;;;19.10;99.90;;;;;;5029994;28;20884;-74
2023/05/07 12:56:26;;;;;;;2.90;2.07;;;19.00;99.90;;;;;;5027188;28;20409;-73
2023/05/07 12:58:56;;;;;;;3.70;2.20;;;18.70;99.90;;;;;;5028063;28;20182;-74
2023/05/07 13:01:23;;;;;;;7.97;2.47;;;18.50;99.90;;;;;;5028788;28;20566;-71
2023/05/07 13:03:52;;;;;;;8.73;2.30;;;18.10;99.90;;;;;;5029563;28;20424;-74
2023/05/07 13:06:17;;;;;;;2.83;1.50;;;17.70;99.90;;;;;;5043488;28;20415;-77
2023/05/07 13:08:43;;;;;;;2.73;1.47;;;17.50;99.90;;;;;;5014562;28;20449;-72
2023/05/07 13:11:10;;;;;;;5.40;2.27;;;17.40;99.90;;;;;;5011558;28;20584;-74
2023/05/07 13:13:37;;;;;;;4.10;2.00;;;17.20;99.90;;;;;;5013463;28;20251;-74
2023/05/07 13:16:04;;;;;;;4.10;2.50;;;16.90;99.90;;;;;;5025741;28;20920;-73
2023/05/07 13:18:30;;;;;;;2.90;2.57;;;16.80;99.90;;;;;;5033953;28;20431;-71
2023/05/07 13:20:56;;;;;;;4.30;2.73;;;16.60;99.90;;;;;;5032287;28;20654;-74
2023/05/07 13:23:22;;;;;;;4.93;3.70;;;16.60;99.90;;;;;;5033494;28;20545;-71
2023/05/07 13:25:48;;;;;;;3.27;2.30;;;16.40;99.90;;;;;;5015253;28;20432;-75
2023/05/07 13:28:14;;;;;;;6.40;2.67;;;16.30;99.90;;;;;;5033724;28;20190;-74
2023/05/07 13:30:43;;;;;;;7.03;2.50;;;16.20;99.90;;;;;;5032970;28;20427;-72
2023/05/07 13:33:09;;;;;;;8.97;2.63;;;16.10;99.90;;;;;;5020153;28;20519;-75
2023/05/07 13:35:35;;;;;;;4.27;1.77;;;15.90;99.90;;;;;;5013741;28;20476;-74
2023/05/07 13:38:00;;;;;;;6.13;2.07;;;15.90;99.90;;;;;;5016932;28;20425;-75
2023/05/07 13:40:26;;;;;;;2.50;1.90;;;15.80;99.90;;;;;;5032813;28;20182;-75
2023/05/07 13:42:51;;;;;;;2.53;2.30;;;15.80;99.90;;;;;;5032473;28;20190;-75
2023/05/07 13:45:20;;;;;;;5.47;2.00;;;15.80;99.90;;;;;;5033388;28;20828;-75
2023/05/07 13:47:46;;;;;;;1.50;1.40;;;15.80;99.90;;;;;;5033656;28;20296;-73
2023/05/07 13:50:15;;;;;;;1.80;1.63;;;15.80;99.90;;;;;;5033036;28;21151;-75
2023/05/07 13:52:43;;;;;;;1.87;1.77;;;15.80;99.90;;;;;;5032216;28;20440;-77
2023/05/07 13:55:10;;;;;;;1.50;1.23;;;15.90;99.90;;;;;;5032802;28;20464;-74
2023/05/07 13:57:36;;;;;;;1.73;1.63;;;15.90;99.90;;;;;;5032148;28;20444;-74
2023/05/07 14:00:04;;;;;;;1.80;1.70;;;15.90;99.90;;;;;;5035283;28;20482;-71
2023/05/07 14:02:30;;;;;;;2.20;2.03;;;15.90;99.90;;;;;;5032150;28;20201;-75
2023/05/07 14:04:56;;;;;;;4.30;1.70;;;15.90;99.90;;;;;;4957618;28;20610;-76
2023/05/07 14:07:28;;;;;;;2.97;1.80;;;15.90;99.90;;;;;;4934644;28;20821;-76
2023/05/07 14:09:55;;;;;;;2.10;1.90;;;15.90;99.90;;;;;;4917085;28;20640;-75
2023/05/07 14:12:21;;;;;;;2.50;1.77;;;15.90;99.90;;;;;;4931237;28;21135;-76
2023/05/07 14:14:46;;;;;;;3.70;1.47;;;15.90;99.90;;;;;;4914574;28;20583;-75